Time;durP1;ratioP1;P1;durP2;ratioP2;P2;SDS_P1;SDS_P2;PMS_P1;PMS_P2;Temp;Humidity;BMP_temperature;BMP_pressure;BME280_temperature;BME280_humidity;BME280_pressure;Samples;Min_cycle;Max_cycle;Signal;HPM_P1;HPM_P2
2021/04/10 00:01:14;;;;;;;1.40;1.30;;;6.90;91.80;;;;;;5075425;28;20216;-72
2021/04/10 00:03:40;;;;;;;1.40;1.30;;;6.80;91.80;;;;;;5075578;28;20174;-72
2021/04/10 00:06:06;;;;;;;2.03;1.40;;;6.60;92.00;;;;;;5075424;28;20499;-71
2021/04/10 00:08:32;;;;;;;1.40;1.30;;;6.40;92.90;;;;;;5075474;28;20260;-71
2021/04/10 00:10:57;;;;;;;1.53;0.70;;;6.40;93.30;;;;;;5075331;28;20177;-72
2021/04/10 00:13:23;;;;;;;4.20;1.00;;;6.30;93.30;;;;;;5075447;28;20400;-72
2021/04/10 00:15:50;;;;;;;1.20;0.93;;;6.20;93.40;;;;;;5075026;28;20651;-72
2021/04/10 00:18:16;;;;;;;3.30;1.60;;;6.30;93.40;;;;;;5075380;28;20257;-72
2021/04/10 00:20:41;;;;;;;3.08;1.30;;;6.20;93.60;;;;;;5074906;28;20178;-72
2021/04/10 00:23:07;;;;;;;1.03;1.03;;;6.30;93.50;;;;;;5075530;28;20181;-72
2021/04/10 00:25:33;;;;;;;4.20;1.90;;;6.50;93.50;;;;;;5074965;28;20191;-72
2021/04/10 00:27:58;;;;;;;2.20;1.27;;;6.50;93.10;;;;;;5073915;28;20248;-72
2021/04/10 00:30:24;;;;;;;1.47;1.10;;;6.50;93.20;;;;;;5074773;28;20540;-72
2021/04/10 00:32:50;;;;;;;1.50;1.40;;;6.50;93.10;;;;;;5075146;28;20501;-72
2021/04/10 00:35:16;;;;;;;1.90;0.90;;;6.50;93.30;;;;;;5074912;28;20182;-71
2021/04/10 00:37:42;;;;;;;3.90;1.10;;;6.50;93.20;;;;;;5074774;28;20201;-72
2021/04/10 00:40:09;;;;;;;2.37;1.20;;;6.50;93.50;;;;;;5074654;28;20218;-71
2021/04/10 00:42:36;;;;;;;3.85;2.17;;;6.40;93.30;;;;;;5074816;28;20165;-72
2021/04/10 00:45:04;;;;;;;4.70;1.40;;;6.40;93.10;;;;;;5074589;28;20272;-72
2021/04/10 00:47:30;;;;;;;1.35;1.13;;;6.50;92.80;;;;;;5074571;28;20588;-72
2021/04/10 00:49:55;;;;;;;0.90;0.90;;;6.60;93.10;;;;;;5074542;28;20177;-72
2021/04/10 00:52:22;;;;;;;1.10;1.10;;;6.50;92.50;;;;;;5074713;28;20182;-72
2021/04/10 00:54:50;;;;;;;3.72;0.90;;;6.50;92.40;;;;;;5074344;28;20191;-72
2021/04/10 00:57:16;;;;;;;2.55;1.60;;;6.60;92.10;;;;;;5074282;28;20190;-72
2021/04/10 00:59:42;;;;;;;1.38;1.05;;;6.70;91.40;;;;;;5074262;28;20170;-72
2021/04/10 01:02:08;;;;;;;1.40;1.30;;;6.80;91.60;;;;;;5074329;28;20192;-72
2021/04/10 01:04:34;;;;;;;1.30;1.10;;;6.70;91.40;;;;;;5073291;28;20516;-71
2021/04/10 01:07:00;;;;;;;1.23;1.13;;;6.70;91.20;;;;;;5074354;28;20170;-71
2021/04/10 01:09:26;;;;;;;2.67;1.40;;;6.90;91.60;;;;;;5074024;28;20491;-72
2021/04/10 01:12:10;;;;;;;1.58;1.48;;;6.90;91.10;;;;;;5074253;28;20602;-72
2021/04/10 01:15:10;;;;;;;1.35;1.25;;;6.90;90.80;;;;;;5074085;28;20196;-72
2021/04/10 01:17:58;;;;;;;1.88;1.10;;;7.00;90.90;;;;;;5074033;28;20319;-72
2021/04/10 01:20:48;;;;;;;1.40;1.30;;;7.00;91.10;;;;;;5073715;28;20166;-72
2021/04/10 01:23:51;;;;;;;1.35;1.23;;;6.90;91.10;;;;;;5074090;28;20165;-72
2021/04/10 01:26:52;;;;;;;1.63;1.45;;;6.90;91.20;;;;;;5073863;28;20165;-72
2021/04/10 01:29:20;;;;;;;1.48;1.10;;;7.00;90.90;;;;;;5055992;28;20211;-72
2021/04/10 01:31:50;;;;;;;1.25;1.02;;;7.00;90.70;;;;;;5073807;28;20170;-72
2021/04/10 01:34:22;;;;;;;1.00;0.90;;;6.90;91.20;;;;;;5073796;28;20708;-72
2021/04/10 01:36:50;;;;;;;2.20;1.20;;;6.90;91.30;;;;;;5073608;28;20582;-72
2021/04/10 01:39:16;;;;;;;3.45;1.63;;;7.00;91.00;;;;;;5073806;28;20227;-72
2021/04/10 01:41:51;;;;;;;1.40;1.30;;;7.00;91.00;;;;;;5073602;28;20171;-72
2021/04/10 01:44:18;;;;;;;5.30;1.75;;;7.00;91.60;;;;;;5073811;28;20322;-72
2021/04/10 01:46:49;;;;;;;3.88;1.80;;;6.90;91.10;;;;;;5073963;28;20216;-72
2021/04/10 01:49:15;;;;;;;3.25;1.60;;;6.90;91.00;;;;;;5073530;28;20186;-72
2021/04/10 01:51:41;;;;;;;9.97;1.00;;;6.90;91.20;;;;;;5073676;28;20198;-72
2021/04/10 01:54:08;;;;;;;1.55;1.45;;;6.90;91.30;;;;;;5073548;28;20507;-72
2021/04/10 01:56:38;;;;;;;2.47;1.25;;;6.90;91.60;;;;;;5073300;28;20205;-71
2021/04/10 01:59:05;;;;;;;2.35;1.40;;;7.10;91.20;;;;;;5073451;28;20207;-72
2021/04/10 02:01:31;;;;;;;2.38;1.50;;;7.10;90.90;;;;;;5073507;28;20174;-72
2021/04/10 02:03:58;;;;;;;1.20;1.20;;;7.10;90.80;;;;;;5073275;28;20167;-72
2021/04/10 02:06:24;;;;;;;1.08;1.00;;;7.20;90.40;;;;;;5073324;28;20623;-72
2021/04/10 02:08:51;;;;;;;4.95;2.25;;;7.00;91.00;;;;;;5073357;28;20176;-72
2021/04/10 02:11:19;;;;;;;2.50;2.20;;;7.00;91.20;;;;;;5073266;28;20601;-72
2021/04/10 02:13:46;;;;;;;1.77;1.67;;;7.00;91.10;;;;;;5073433;28;20171;-72
2021/04/10 02:16:11;;;;;;;1.55;1.45;;;6.90;91.10;;;;;;5073076;28;20206;-72
2021/04/10 02:18:38;;;;;;;2.43;1.83;;;6.90;91.70;;;;;;5073333;28;20166;-72
2021/04/10 02:21:10;;;;;;;2.85;1.60;;;6.90;91.20;;;;;;5072906;28;20413;-72
2021/04/10 02:23:42;;;;;;;6.35;1.20;;;7.10;90.90;;;;;;5073296;28;20542;-72
2021/04/10 02:26:09;;;;;;;4.70;1.70;;;7.20;90.90;;;;;;5072218;28;20622;-72
2021/04/10 02:28:35;;;;;;;1.25;1.00;;;7.30;90.30;;;;;;5073290;28;20179;-72
2021/04/10 02:31:03;;;;;;;1.20;1.20;;;7.20;90.30;;;;;;5073065;28;20179;-72
2021/04/10 02:33:41;;;;;;;1.40;1.30;;;7.00;90.50;;;;;;5073525;28;20188;-72
2021/04/10 02:36:11;;;;;;;2.75;1.55;;;7.00;90.40;;;;;;5073040;28;20197;-72
2021/04/10 02:38:39;;;;;;;1.60;1.50;;;7.10;90.30;;;;;;5073093;28;20254;-72
2021/04/10 02:41:12;;;;;;;4.20;2.55;;;7.20;90.50;;;;;;5072818;28;20191;-72
2021/04/10 02:43:43;;;;;;;1.30;1.25;;;7.20;90.60;;;;;;5073086;28;20175;-72
2021/04/10 02:46:11;;;;;;;1.48;1.38;;;7.30;90.20;;;;;;5073004;28;20234;-72
2021/04/10 02:48:44;;;;;;;1.35;1.00;;;7.30;90.20;;;;;;5072958;28;20503;-72
2021/04/10 02:51:11;;;;;;;1.15;1.05;;;7.30;89.60;;;;;;5073095;28;20178;-72
2021/04/10 02:53:38;;;;;;;1.13;1.02;;;7.30;89.30;;;;;;5073035;28;20178;-71
2021/04/10 02:56:06;;;;;;;2.28;2.08;;;7.30;89.20;;;;;;5071436;28;20253;-72
2021/04/10 02:58:32;;;;;;;1.25;1.15;;;7.40;88.90;;;;;;5072786;28;20179;-72
2021/04/10 03:00:58;;;;;;;3.00;2.42;;;7.30;90.00;;;;;;5072671;28;20656;-72
2021/04/10 03:03:26;;;;;;;2.80;1.15;;;7.30;90.10;;;;;;5072774;28;20658;-72
2021/04/10 03:05:54;;;;;;;3.35;1.23;;;7.30;89.10;;;;;;5072696;28;20197;-72
2021/04/10 03:08:22;;;;;;;1.23;1.00;;;7.30;89.80;;;;;;5072909;28;20186;-72
2021/04/10 03:10:53;;;;;;;1.25;1.15;;;7.30;90.10;;;;;;5072453;28;20669;-72
2021/04/10 03:13:21;;;;;;;1.00;1.00;;;7.30;90.20;;;;;;5072726;28;20180;-72
2021/04/10 03:15:52;;;;;;;1.27;1.08;;;7.30;90.00;;;;;;5072444;28;20195;-72
2021/04/10 03:18:18;;;;;;;1.35;1.25;;;7.30;89.60;;;;;;5072858;28;20169;-72
2021/04/10 03:20:45;;;;;;;2.35;1.33;;;7.40;89.70;;;;;;5071194;28;20206;-72
2021/04/10 03:23:11;;;;;;;1.45;1.33;;;7.50;89.20;;;;;;5072571;28;20171;-72
2021/04/10 03:25:37;;;;;;;1.30;1.20;;;7.60;89.50;;;;;;5072614;28;20180;-72
2021/04/10 03:28:05;;;;;;;0.80;0.80;;;7.50;88.60;;;;;;5075448;28;20267;-72
2021/04/10 03:30:31;;;;;;;1.17;1.13;;;7.60;88.60;;;;;;5076158;28;20190;-72
2021/04/10 03:32:57;;;;;;;1.85;1.40;;;7.70;87.40;;;;;;5076308;28;20184;-72
2021/04/10 03:35:27;;;;;;;5.70;1.30;;;7.70;87.60;;;;;;5076134;28;20192;-72
2021/04/10 03:37:56;;;;;;;2.08;1.55;;;7.70;87.60;;;;;;5075796;28;20457;-72
2021/04/10 03:40:23;;;;;;;1.70;1.60;;;7.60;88.60;;;;;;5075680;28;20754;-72
2021/04/10 03:42:49;;;;;;;4.43;2.47;;;7.60;87.80;;;;;;5075966;28;20167;-72
2021/04/10 03:45:20;;;;;;;1.00;0.93;;;7.60;86.70;;;;;;5075928;28;20244;-72
2021/04/10 03:47:46;;;;;;;1.20;1.02;;;7.60;87.60;;;;;;5075942;28;20238;-72
2021/04/10 03:50:13;;;;;;;3.35;1.40;;;7.60;87.40;;;;;;5075562;28;20266;-72
2021/04/10 03:52:39;;;;;;;2.70;1.30;;;7.70;86.40;;;;;;5075589;28;20180;-72
2021/04/10 03:55:08;;;;;;;1.33;1.10;;;7.70;86.90;;;;;;5075709;28;20199;-72
2021/04/10 03:57:34;;;;;;;1.65;1.20;;;7.70;87.30;;;;;;5075560;28;20227;-72
2021/04/10 04:00:00;;;;;;;2.33;1.10;;;7.70;86.80;;;;;;5075401;28;20657;-72
2021/04/10 04:02:29;;;;;;;1.80;0.70;;;7.60;87.50;;;;;;5075512;28;20400;-72
2021/04/10 04:04:55;;;;;;;1.95;1.40;;;7.50;86.90;;;;;;5075464;28;20197;-72
2021/04/10 04:07:21;;;;;;;1.30;1.20;;;7.40;87.40;;;;;;5075888;28;20237;-72
2021/04/10 04:09:46;;;;;;;3.20;1.07;;;7.40;87.60;;;;;;5075246;28;20815;-72
2021/04/10 04:12:12;;;;;;;1.60;1.07;;;7.40;88.10;;;;;;5075439;28;20242;-72
2021/04/10 04:14:38;;;;;;;2.90;1.57;;;7.30;87.80;;;;;;5075444;28;20194;-72
2021/04/10 04:17:06;;;;;;;1.25;1.17;;;7.40;86.30;;;;;;5075342;28;20191;-72
2021/04/10 04:19:35;;;;;;;1.45;1.35;;;7.50;86.90;;;;;;5075025;28;20684;-72
2021/04/10 04:22:01;;;;;;;3.38;0.93;;;7.40;87.30;;;;;;5075296;28;20187;-72
2021/04/10 04:24:27;;;;;;;1.30;1.20;;;7.50;87.00;;;;;;5075010;28;20194;-72
2021/04/10 04:26:53;;;;;;;1.15;1.05;;;7.50;86.90;;;;;;5075061;28;20167;-72
2021/04/10 04:29:19;;;;;;;2.10;1.10;;;7.50;87.00;;;;;;5074950;28;20229;-72
2021/04/10 04:31:45;;;;;;;7.93;1.80;;;7.40;87.60;;;;;;5075205;28;20564;-72
2021/04/10 04:34:10;;;;;;;1.53;1.10;;;7.50;85.90;;;;;;5074916;28;20190;-72
2021/04/10 04:36:36;;;;;;;1.27;1.17;;;7.30;87.00;;;;;;5075033;28;20218;-72
2021/04/10 04:39:02;;;;;;;1.40;1.40;;;7.40;87.30;;;;;;5073663;28;20175;-72
2021/04/10 04:41:28;;;;;;;0.73;0.73;;;7.50;86.70;;;;;;5074978;28;20244;-72
2021/04/10 04:43:54;;;;;;;1.50;1.40;;;7.60;85.10;;;;;;5074759;28;20171;-72
2021/04/10 04:46:19;;;;;;;1.43;0.77;;;7.70;85.10;;;;;;5074713;28;20263;-72
2021/04/10 04:48:45;;;;;;;1.10;1.00;;;7.60;85.80;;;;;;5074568;28;20171;-72
2021/04/10 04:51:11;;;;;;;1.63;0.70;;;7.60;84.40;;;;;;5074579;28;20552;-72
2021/04/10 04:53:36;;;;;;;4.17;2.00;;;7.70;83.80;;;;;;5073319;28;20608;-72
2021/04/10 04:56:02;;;;;;;5.97;2.47;;;7.50;86.00;;;;;;5074294;28;20458;-72
2021/04/10 04:58:28;;;;;;;0.97;0.97;;;7.40;86.50;;;;;;5074380;28;20184;-72
2021/04/10 05:00:53;;;;;;;1.13;0.77;;;7.50;84.50;;;;;;5074397;28;20917;-72
2021/04/10 05:03:19;;;;;;;2.30;0.87;;;7.80;83.60;;;;;;5074455;28;20167;-72
2021/04/10 05:05:44;;;;;;;2.00;1.37;;;7.90;84.30;;;;;;5074400;28;20565;-72
2021/04/10 05:08:10;;;;;;;1.33;0.90;;;7.80;84.10;;;;;;5074295;28;20533;-72
2021/04/10 05:10:36;;;;;;;1.53;1.10;;;7.80;85.50;;;;;;5074000;28;20235;-72
2021/04/10 05:13:01;;;;;;;3.13;1.57;;;8.00;82.40;;;;;;5074256;28;20160;-72
2021/04/10 05:15:28;;;;;;;4.10;1.20;;;8.00;81.70;;;;;;5073931;28;20692;-72
2021/04/10 05:17:53;;;;;;;1.83;1.08;;;8.10;82.50;;;;;;5074091;28;20223;-72
2021/04/10 05:20:19;;;;;;;1.77;1.27;;;8.10;79.90;;;;;;5073834;28;20210;-72
2021/04/10 05:22:52;;;;;;;1.63;1.23;;;8.20;81.80;;;;;;5073793;28;20189;-72
2021/04/10 05:25:18;;;;;;;2.15;1.00;;;8.40;80.80;;;;;;5073891;28;20187;-72
2021/04/10 05:27:43;;;;;;;0.80;0.73;;;8.50;80.60;;;;;;5074084;28;20179;-72
2021/04/10 05:30:09;;;;;;;0.90;0.90;;;8.50;81.80;;;;;;5073558;28;20167;-72
2021/04/10 05:32:35;;;;;;;1.10;0.95;;;8.50;82.00;;;;;;5073974;28;20258;-72
2021/04/10 05:35:01;;;;;;;0.80;0.80;;;8.60;80.20;;;;;;5073877;28;20230;-72
2021/04/10 05:37:26;;;;;;;0.97;0.90;;;8.70;81.30;;;;;;5073663;28;20697;-72
2021/04/10 05:39:52;;;;;;;1.03;0.83;;;8.70;81.40;;;;;;5073609;28;20589;-72
2021/04/10 05:42:17;;;;;;;0.80;0.80;;;8.80;81.90;;;;;;5072470;28;20764;-72
2021/04/10 05:44:43;;;;;;;1.73;1.30;;;8.90;80.20;;;;;;5073763;28;20185;-72
2021/04/10 05:47:10;;;;;;;1.63;1.03;;;8.90;80.80;;;;;;5073513;28;20169;-72
2021/04/10 05:49:37;;;;;;;1.10;1.00;;;8.90;83.40;;;;;;5073206;28;20184;-72
2021/04/10 05:52:03;;;;;;;2.87;1.27;;;8.90;83.30;;;;;;5073717;28;20184;-72
2021/04/10 05:54:28;;;;;;;1.23;1.00;;;8.90;83.40;;;;;;5073414;28;20200;-72
2021/04/10 05:56:54;;;;;;;0.80;0.80;;;9.00;83.90;;;;;;5073448;28;20453;-72
2021/04/10 05:59:20;;;;;;;1.20;1.10;;;9.00;84.00;;;;;;5073258;28;20177;-72
2021/04/10 06:01:45;;;;;;;1.00;0.90;;;9.00;83.50;;;;;;5073333;28;20197;-72
2021/04/10 06:04:11;;;;;;;1.23;1.00;;;9.10;83.80;;;;;;5073342;28;20182;-72
2021/04/10 06:06:36;;;;;;;2.27;1.20;;;9.10;85.40;;;;;;5073394;28;20265;-72
2021/04/10 06:09:02;;;;;;;1.00;1.00;;;9.20;87.70;;;;;;5073251;28;20250;-72
2021/04/10 06:11:28;;;;;;;1.23;1.03;;;9.20;87.20;;;;;;5073495;28;20179;-72
2021/04/10 06:13:54;;;;;;;2.33;1.30;;;8.80;87.60;;;;;;5073325;28;20857;-72
2021/04/10 06:16:19;;;;;;;1.60;1.27;;;8.90;88.10;;;;;;5073103;28;20203;-72
2021/04/10 06:18:45;;;;;;;1.50;1.17;;;9.10;87.10;;;;;;5072981;28;20647;-72
2021/04/10 06:21:11;;;;;;;1.37;1.00;;;9.10;87.30;;;;;;5072983;28;20188;-72
2021/04/10 06:23:36;;;;;;;1.93;1.20;;;9.20;87.30;;;;;;5073286;28;20260;-72
2021/04/10 06:26:02;;;;;;;1.30;1.20;;;9.40;86.80;;;;;;5073017;28;20227;-72
2021/04/10 06:28:28;;;;;;;2.43;2.30;;;9.50;86.50;;;;;;5072708;28;20251;-75
2021/04/10 06:31:21;;;;;;;4.50;1.40;;;9.60;86.70;;;;;;5070892;28;20176;-76
2021/04/10 06:33:50;;;;;;;1.40;1.30;;;9.70;87.20;;;;;;5072933;28;20169;-70
2021/04/10 06:36:18;;;;;;;6.70;1.23;;;9.70;87.50;;;;;;5072180;28;20280;-72
2021/04/10 06:38:43;;;;;;;1.20;1.10;;;9.70;90.60;;;;;;5072952;28;20223;-69
2021/04/10 06:41:15;;;;;;;0.97;0.83;;;10.10;90.20;;;;;;5071916;28;20198;-74
2021/04/10 06:43:42;;;;;;;5.00;1.30;;;10.50;83.80;;;;;;5072797;28;20178;-73
2021/04/10 06:46:09;;;;;;;1.88;1.58;;;10.40;82.70;;;;;;5073264;28;20173;-73
2021/04/10 06:48:39;;;;;;;1.60;1.08;;;10.00;83.80;;;;;;5073437;28;20235;-73
2021/04/10 06:51:05;;;;;;;2.75;1.17;;;9.60;85.90;;;;;;5073408;28;20172;-73
2021/04/10 06:53:33;;;;;;;1.60;1.35;;;9.70;86.80;;;;;;5072613;28;20182;-72
2021/04/10 06:56:02;;;;;;;1.30;1.20;;;9.80;87.10;;;;;;5072524;28;20201;-71
2021/04/10 06:58:42;;;;;;;1.20;1.10;;;10.20;84.90;;;;;;5072834;28;20176;-70
2021/04/10 07:01:08;;;;;;;4.53;1.00;;;10.60;84.40;;;;;;5071825;28;20166;-71
2021/04/10 07:03:35;;;;;;;1.33;1.00;;;11.30;81.60;;;;;;5075589;28;20606;-71
2021/04/10 07:06:02;;;;;;;1.60;1.17;;;11.90;79.60;;;;;;5076216;28;20444;-70
2021/04/10 07:08:28;;;;;;;2.20;1.20;;;12.80;76.40;;;;;;5076357;28;20421;-70
2021/04/10 07:10:55;;;;;;;1.13;1.03;;;13.70;73.60;;;;;;5076253;28;20408;-70
2021/04/10 07:13:20;;;;;;;3.53;2.87;;;14.60;68.60;;;;;;5076510;28;20411;-70
2021/04/10 07:15:47;;;;;;;1.60;1.30;;;15.70;65.50;;;;;;5075364;28;20956;-77
2021/04/10 07:18:13;;;;;;;1.87;1.00;;;16.60;59.30;;;;;;5076514;28;20195;-74
2021/04/10 07:20:39;;;;;;;1.87;1.10;;;17.10;58.10;;;;;;5076003;28;20843;-74
2021/04/10 07:23:10;;;;;;;1.20;1.10;;;17.90;54.20;;;;;;5075331;28;20405;-74
2021/04/10 07:25:44;;;;;;;2.20;1.23;;;18.90;51.80;;;;;;5076033;28;20935;-73
2021/04/10 07:28:22;;;;;;;1.67;1.57;;;19.30;49.80;;;;;;5074332;28;20445;-73
2021/04/10 07:31:00;;;;;;;1.30;1.13;;;18.50;48.90;;;;;;5075864;28;20453;-74
2021/04/10 07:33:30;;;;;;;3.57;1.43;;;16.60;51.30;;;;;;5075702;28;20410;-73
2021/04/10 07:35:56;;;;;;;1.27;1.17;;;15.20;54.30;;;;;;5075017;28;20475;-74
2021/04/10 07:38:32;;;;;;;2.10;1.33;;;14.20;56.70;;;;;;5075463;28;20418;-74
2021/04/10 07:40:59;;;;;;;2.60;2.30;;;13.40;58.80;;;;;;5074624;28;20415;-74
2021/04/10 07:43:28;;;;;;;1.37;1.27;;;13.30;59.70;;;;;;5075303;28;20497;-74
2021/04/10 07:46:22;;;;;;;1.80;1.47;;;13.30;60.60;;;;;;5075761;28;20795;-74
2021/04/10 07:49:11;;;;;;;1.43;1.33;;;13.10;60.50;;;;;;5075598;28;20422;-73
2021/04/10 07:51:52;;;;;;;1.53;1.30;;;13.30;61.00;;;;;;5075893;28;20434;-73
2021/04/10 07:54:28;;;;;;;1.10;1.10;;;13.30;61.00;;;;;;5075869;28;20435;-73
2021/04/10 07:56:55;;;;;;;1.30;1.20;;;13.80;61.30;;;;;;5075792;28;20463;-73
2021/04/10 07:59:21;;;;;;;2.30;1.67;;;14.40;59.60;;;;;;5075462;28;20420;-74
2021/04/10 08:01:47;;;;;;;1.40;1.30;;;14.60;58.30;;;;;;5074399;28;20879;-74
2021/04/10 08:04:14;;;;;;;2.17;1.10;;;14.70;57.40;;;;;;5074770;28;20424;-74
2021/04/10 08:07:00;;;;;;;4.43;2.60;;;14.80;57.00;;;;;;5075531;28;20420;-74
2021/04/10 08:09:33;;;;;;;1.43;1.33;;;14.70;56.60;;;;;;5075230;28;20412;-74
2021/04/10 08:11:59;;;;;;;1.73;0.80;;;14.20;55.50;;;;;;5074406;28;20533;-74
2021/04/10 08:14:37;;;;;;;1.10;1.00;;;14.00;56.70;;;;;;5075593;28;20441;-74
2021/04/10 08:17:02;;;;;;;2.20;1.23;;;13.50;56.00;;;;;;5075205;28;20444;-74
2021/04/10 08:19:30;;;;;;;2.40;1.30;;;13.30;56.50;;;;;;5075580;28;20477;-74
2021/04/10 08:21:56;;;;;;;2.00;1.17;;;13.00;57.90;;;;;;5075374;28;20184;-74
2021/04/10 08:24:23;;;;;;;2.20;0.90;;;13.30;56.50;;;;;;5074966;28;20832;-74
2021/04/10 08:26:50;;;;;;;1.40;1.30;;;13.60;55.80;;;;;;5074862;28;20407;-72
2021/04/10 08:29:17;;;;;;;3.17;0.73;;;13.90;54.60;;;;;;5073087;28;20411;-73
2021/04/10 08:31:43;;;;;;;3.30;0.90;;;14.00;52.60;;;;;;5073485;28;20977;-72
2021/04/10 08:34:08;;;;;;;3.63;0.90;;;14.00;53.20;;;;;;5074783;28;20490;-72
2021/04/10 08:36:38;;;;;;;0.97;0.87;;;13.70;53.60;;;;;;5074847;28;20201;-73
2021/04/10 08:39:04;;;;;;;2.20;0.70;;;13.70;52.90;;;;;;5073865;28;20170;-72
2021/04/10 08:41:32;;;;;;;3.73;0.80;;;13.80;51.50;;;;;;5073685;28;20950;-71
2021/04/10 08:43:59;;;;;;;0.70;0.70;;;13.60;51.60;;;;;;5072332;28;20526;-72
2021/04/10 08:46:26;;;;;;;1.17;0.80;;;13.40;51.90;;;;;;5073796;28;20412;-72
2021/04/10 08:48:56;;;;;;;0.87;0.70;;;13.20;50.80;;;;;;5074428;28;20436;-72
2021/04/10 08:51:24;;;;;;;0.67;0.60;;;13.70;49.30;;;;;;5072173;28;20412;-72
2021/04/10 08:53:52;;;;;;;0.87;0.70;;;14.60;48.20;;;;;;5074025;28;20450;-72
2021/04/10 08:56:24;;;;;;;1.87;0.83;;;15.20;47.20;;;;;;5072631;28;20451;-71
2021/04/10 08:58:50;;;;;;;2.20;0.70;;;15.90;46.80;;;;;;5073753;28;20406;-73
2021/04/10 09:01:22;;;;;;;3.63;0.80;;;15.90;44.30;;;;;;5074157;28;20924;-73
2021/04/10 09:03:50;;;;;;;6.53;0.90;;;15.80;45.00;;;;;;5073741;28;20411;-72
2021/04/10 09:06:29;;;;;;;0.60;0.60;;;16.80;45.20;;;;;;5074884;28;20897;-72
2021/04/10 09:09:25;;;;;;;1.50;0.70;;;17.30;42.60;;;;;;5074128;28;20470;-72
2021/04/10 09:12:16;;;;;;;0.70;0.70;;;18.00;40.40;;;;;;5073446;28;20412;-71
2021/04/10 09:14:44;;;;;;;0.77;0.70;;;17.70;40.40;;;;;;5074436;28;20472;-74
2021/04/10 09:17:10;;;;;;;0.80;0.67;;;18.10;38.60;;;;;;5074585;28;20447;-71
2021/04/10 09:19:36;;;;;;;1.37;1.27;;;18.70;36.90;;;;;;5073846;28;20410;-71
2021/04/10 09:22:02;;;;;;;0.70;0.70;;;19.30;35.60;;;;;;5074036;28;20588;-72
2021/04/10 09:24:39;;;;;;;0.50;0.50;;;19.70;34.50;;;;;;5073286;28;20455;-71
2021/04/10 09:27:25;;;;;;;1.50;0.63;;;20.00;31.60;;;;;;5074261;28;20417;-72
2021/04/10 09:30:04;;;;;;;1.47;0.87;;;20.80;32.00;;;;;;5073757;28;20407;-72
2021/04/10 09:32:38;;;;;;;0.80;0.80;;;21.30;29.70;;;;;;5074032;28;20428;-72
2021/04/10 09:35:19;;;;;;;0.60;0.60;;;21.10;28.90;;;;;;5074035;28;20425;-72
2021/04/10 09:37:45;;;;;;;1.30;1.10;;;20.40;28.40;;;;;;5073931;28;20480;-72
2021/04/10 09:40:23;;;;;;;0.80;0.70;;;20.80;28.00;;;;;;5073562;28;20460;-72
2021/04/10 09:42:50;;;;;;;0.70;0.60;;;21.30;27.20;;;;;;5073824;28;20402;-72
2021/04/10 09:45:30;;;;;;;0.63;0.53;;;22.40;27.30;;;;;;5073835;28;20476;-72
2021/04/10 09:47:57;;;;;;;1.10;0.60;;;23.20;26.40;;;;;;5073987;28;20478;-72
2021/04/10 09:50:26;;;;;;;0.97;0.63;;;23.70;26.50;;;;;;5073367;28;20905;-72
2021/04/10 09:53:05;;;;;;;2.20;1.03;;;24.50;25.70;;;;;;5073700;28;20426;-72
2021/04/10 09:55:36;;;;;;;1.23;1.13;;;25.00;24.20;;;;;;5073666;28;20439;-73
2021/04/10 09:58:09;;;;;;;0.70;0.70;;;24.70;24.00;;;;;;5072483;28;20430;-72
2021/04/10 10:00:39;;;;;;;1.13;0.80;;;24.10;26.00;;;;;;5073776;28;20411;-72
2021/04/10 10:03:07;;;;;;;1.13;0.90;;;23.40;24.60;;;;;;5072498;28;20379;-72
2021/04/10 10:05:42;;;;;;;0.80;0.80;;;21.20;26.30;;;;;;5073283;28;20424;-72
2021/04/10 10:08:11;;;;;;;0.93;0.87;;;19.40;27.30;;;;;;5072549;28;20406;-72
2021/04/10 10:10:45;;;;;;;0.90;0.60;;;18.60;28.90;;;;;;5072738;28;20406;-72
2021/04/10 10:13:15;;;;;;;2.07;1.07;;;18.40;29.30;;;;;;5073436;28;20401;-72
2021/04/10 10:15:41;;;;;;;1.90;1.03;;;17.90;29.80;;;;;;5073092;28;20840;-72
2021/04/10 10:18:32;;;;;;;1.73;0.73;;;17.60;31.00;;;;;;5072392;28;20538;-72
2021/04/10 10:21:19;;;;;;;0.77;0.77;;;17.70;31.80;;;;;;5073149;28;20540;-73
2021/04/10 10:23:59;;;;;;;0.73;0.70;;;18.50;31.30;;;;;;5073704;28;20393;-73
2021/04/10 10:26:28;;;;;;;1.00;1.00;;;18.70;30.40;;;;;;5073182;28;20464;-72
2021/04/10 10:29:00;;;;;;;2.00;1.00;;;19.10;31.20;;;;;;5073308;28;20809;-72
2021/04/10 10:31:29;;;;;;;1.27;1.10;;;19.20;30.80;;;;;;5073190;28;20473;-73
2021/04/10 10:34:12;;;;;;;6.33;0.90;;;19.40;30.50;;;;;;5073448;28;20419;-73
2021/04/10 10:36:40;;;;;;;2.20;1.07;;;19.90;30.90;;;;;;5076296;28;20877;-72
2021/04/10 10:39:08;;;;;;;1.27;1.17;;;20.20;31.50;;;;;;5077234;28;20394;-73
2021/04/10 10:41:44;;;;;;;2.50;1.40;;;20.20;31.30;;;;;;5077370;28;20433;-72
2021/04/10 10:44:11;;;;;;;1.13;1.03;;;20.50;33.00;;;;;;5076925;28;20419;-72
2021/04/10 10:46:36;;;;;;;1.40;1.30;;;20.90;32.00;;;;;;5076662;28;20928;-72
2021/04/10 10:49:10;;;;;;;1.80;1.50;;;21.30;31.80;;;;;;5076755;28;20410;-72
2021/04/10 10:51:40;;;;;;;1.83;1.37;;;20.00;33.10;;;;;;5077172;28;20676;-71
2021/04/10 10:54:07;;;;;;;3.07;1.93;;;19.40;34.40;;;;;;5075649;28;20417;-70
2021/04/10 10:56:34;;;;;;;4.03;1.63;;;18.80;34.50;;;;;;5076869;28;20531;-71
2021/04/10 10:59:04;;;;;;;1.67;1.50;;;18.40;35.60;;;;;;5076598;28;20411;-71
2021/04/10 11:01:41;;;;;;;3.00;2.03;;;17.80;37.30;;;;;;5076799;28;20465;-71
2021/04/10 11:04:17;;;;;;;2.20;1.70;;;17.40;38.50;;;;;;5076488;28;20759;-70
2021/04/10 11:06:47;;;;;;;6.43;1.90;;;16.90;37.80;;;;;;5076145;28;20427;-70
2021/04/10 11:09:22;;;;;;;1.80;1.50;;;16.20;39.70;;;;;;5076738;28;20818;-71
2021/04/10 11:11:49;;;;;;;3.87;2.10;;;16.20;39.60;;;;;;5076838;28;20406;-69
2021/04/10 11:14:23;;;;;;;3.07;2.10;;;16.50;39.50;;;;;;5076263;28;20803;-71
2021/04/10 11:16:51;;;;;;;3.53;2.23;;;16.50;39.60;;;;;;5076237;28;20451;-70
2021/04/10 11:19:30;;;;;;;1.93;1.73;;;16.10;40.30;;;;;;5076203;28;20404;-71
2021/04/10 11:21:58;;;;;;;2.07;1.80;;;15.90;40.40;;;;;;5076177;28;20442;-70
2021/04/10 11:24:52;;;;;;;4.30;2.23;;;16.30;41.10;;;;;;5075556;28;20833;-71
2021/04/10 11:27:24;;;;;;;2.50;1.23;;;16.60;40.00;;;;;;5076134;28;20412;-70
2021/04/10 11:29:59;;;;;;;3.13;1.70;;;17.00;39.30;;;;;;5076055;28;20407;-70
2021/04/10 11:32:26;;;;;;;2.87;1.80;;;17.00;39.10;;;;;;5076280;28;20402;-71
2021/04/10 11:34:58;;;;;;;1.70;1.60;;;16.90;40.00;;;;;;5076037;28;20431;-70
2021/04/10 11:37:36;;;;;;;2.00;1.70;;;16.70;39.90;;;;;;5075977;28;20534;-70
2021/04/10 11:40:28;;;;;;;1.57;1.47;;;16.30;40.10;;;;;;5075900;28;20406;-70
2021/04/10 11:43:06;;;;;;;2.10;1.40;;;16.10;41.10;;;;;;5075955;28;20430;-71
2021/04/10 11:45:44;;;;;;;1.47;1.37;;;15.70;41.70;;;;;;5075801;28;20451;-71
2021/04/10 11:48:15;;;;;;;1.60;1.43;;;15.60;41.20;;;;;;5075531;28;20400;-72
2021/04/10 11:50:51;;;;;;;8.40;1.90;;;15.60;41.80;;;;;;5075673;28;20437;-70
2021/04/10 11:53:27;;;;;;;3.00;1.57;;;15.30;41.60;;;;;;5075960;28;20760;-70
2021/04/10 11:55:54;;;;;;;5.80;1.80;;;15.00;41.80;;;;;;5075618;28;20462;-70
2021/04/10 11:58:35;;;;;;;3.10;1.43;;;15.10;42.30;;;;;;5075645;28;20438;-71
2021/04/10 12:01:12;;;;;;;4.50;1.50;;;15.10;42.30;;;;;;5075840;28;20400;-71
2021/04/10 12:03:54;;;;;;;1.90;1.80;;;14.90;43.40;;;;;;5075821;28;20490;-70
2021/04/10 12:06:37;;;;;;;1.70;1.60;;;14.70;42.80;;;;;;5075746;28;20414;-70
2021/04/10 12:09:13;;;;;;;2.97;1.30;;;14.90;43.60;;;;;;5075254;28;20417;-70
2021/04/10 12:11:41;;;;;;;2.20;1.30;;;15.10;43.70;;;;;;5075622;28;20465;-70
2021/04/10 12:14:17;;;;;;;2.00;1.53;;;15.00;42.40;;;;;;5075336;28;20446;-70
2021/04/10 12:16:43;;;;;;;1.10;1.00;;;14.90;42.90;;;;;;5075491;28;20445;-70
2021/04/10 12:19:13;;;;;;;1.37;1.27;;;15.10;43.20;;;;;;5075200;28;20400;-71
2021/04/10 12:21:39;;;;;;;3.53;1.87;;;15.40;43.40;;;;;;5075428;28;20416;-71
2021/04/10 12:24:05;;;;;;;1.80;1.57;;;15.80;42.60;;;;;;5075426;28;20474;-70
2021/04/10 12:26:33;;;;;;;2.83;1.53;;;15.70;42.00;;;;;;5075113;28;20180;-70
2021/04/10 12:28:58;;;;;;;1.87;1.30;;;15.20;42.50;;;;;;5075003;28;20800;-70
2021/04/10 12:31:24;;;;;;;1.63;1.53;;;15.10;43.60;;;;;;5074967;28;20404;-70
2021/04/10 12:33:50;;;;;;;5.87;1.27;;;15.00;43.70;;;;;;5074945;28;20173;-71
2021/04/10 12:36:15;;;;;;;1.57;1.47;;;14.80;44.30;;;;;;5074559;28;20191;-70
2021/04/10 12:38:42;;;;;;;3.20;1.30;;;15.00;44.10;;;;;;5074154;28;20165;-70
2021/04/10 12:41:08;;;;;;;3.07;1.30;;;15.30;43.50;;;;;;5074997;28;20630;-70
2021/04/10 12:43:34;;;;;;;2.07;1.47;;;15.00;42.70;;;;;;5074938;28;20396;-71
2021/04/10 12:46:00;;;;;;;1.60;1.50;;;14.70;43.90;;;;;;5074574;28;20472;-70
2021/04/10 12:48:26;;;;;;;1.70;1.60;;;14.60;45.00;;;;;;5074840;28;20521;-70
2021/04/10 12:50:52;;;;;;;1.53;1.43;;;14.50;44.60;;;;;;5074527;28;20956;-70
2021/04/10 12:53:18;;;;;;;1.47;1.37;;;14.60;44.20;;;;;;5073194;28;20408;-71
2021/04/10 12:55:44;;;;;;;3.30;1.50;;;14.90;44.90;;;;;;5074416;28;20478;-71
2021/04/10 12:58:09;;;;;;;1.87;1.77;;;15.40;44.70;;;;;;5074333;28;20220;-70
2021/04/10 13:00:35;;;;;;;1.97;1.70;;;15.60;43.60;;;;;;5073303;28;20168;-70
2021/04/10 13:03:01;;;;;;;4.83;2.13;;;15.60;43.30;;;;;;5074445;28;20584;-70
2021/04/10 13:05:27;;;;;;;2.10;1.90;;;15.40;43.10;;;;;;5074159;28;20246;-70